createdAt,value
2023-05-16T00:04:27.515Z,86.93
2023-05-16T00:09:29.624Z,86.04
2023-05-16T00:14:31.828Z,85.34
2023-05-16T00:19:33.949Z,85.12
2023-05-16T00:24:36.061Z,85.49
2023-05-16T00:29:38.612Z,85.81
2023-05-16T00:34:42.152Z,86.45
2023-05-16T00:39:44.314Z,87.07
2023-05-16T00:44:46.739Z,87.20
2023-05-16T00:49:49.531Z,87.58
2023-05-16T00:54:52.202Z,87.94
2023-05-16T00:59:55.013Z,88.42
2023-05-16T01:04:58.177Z,88.93
2023-05-16T01:10:00.804Z,89.68
2023-05-16T01:15:09.735Z,90.19
2023-05-16T01:20:37.489Z,90.23
2023-05-16T01:25:55.489Z,90.94
2023-05-16T01:30:57.554Z,90.55
2023-05-16T01:36:21.658Z,90.97
2023-05-16T01:41:29.523Z,91.43
2023-05-16T01:46:37.380Z,91.48
2023-05-16T01:51:42.086Z,91.25
2023-05-16T01:56:51.985Z,91.61
2023-05-16T02:01:55.399Z,92.05
2023-05-16T02:06:57.565Z,91.79
2023-05-16T02:12:00.400Z,91.97
2023-05-16T02:17:02.558Z,91.78
2023-05-16T02:22:04.833Z,91.41
2023-05-16T02:27:07.186Z,91.36
2023-05-16T02:32:09.309Z,91.37
2023-05-16T02:37:13.356Z,91.61
2023-05-16T02:42:15.660Z,91.78
2023-05-16T02:47:17.725Z,91.81
2023-05-16T02:52:20.453Z,91.77
2023-05-16T02:57:22.549Z,91.98
2023-05-16T03:02:24.927Z,91.68
2023-05-16T03:07:27.088Z,91.58
2023-05-16T03:12:29.167Z,91.54
2023-05-16T03:17:31.623Z,91.75
2023-05-16T03:22:33.751Z,92.09
2023-05-16T03:27:36.168Z,92.18
2023-05-16T03:32:38.533Z,91.66
2023-05-16T03:37:40.790Z,91.58
2023-05-16T03:42:42.875Z,91.39
2023-05-16T03:47:45.587Z,91.39
2023-05-16T03:52:47.796Z,91.71
2023-05-16T03:57:51.262Z,91.61
2023-05-16T04:02:53.529Z,91.39
2023-05-16T04:07:55.806Z,91.13
2023-05-16T04:12:57.905Z,90.64
2023-05-16T04:18:00.067Z,90.49
2023-05-16T04:23:02.387Z,90.27
2023-05-16T04:28:04.654Z,90.30
2023-05-16T04:33:07.271Z,90.02
2023-05-16T04:38:11.037Z,89.59
2023-05-16T04:43:13.117Z,89.58
2023-05-16T04:48:15.487Z,89.34
2023-05-16T04:53:17.727Z,89.15
2023-05-16T04:58:19.943Z,88.71
2023-05-16T05:03:22.116Z,88.63
2023-05-16T05:08:24.284Z,88.57
2023-05-16T05:13:26.384Z,88.91
2023-05-16T05:18:28.518Z,88.45
2023-05-16T05:23:31.024Z,88.64
2023-05-16T05:28:33.083Z,88.88
2023-05-16T05:33:35.254Z,88.98
2023-05-16T05:38:37.361Z,88.97
2023-05-16T05:43:39.411Z,89.18
2023-05-16T05:48:41.568Z,89.15
2023-05-16T05:53:45.068Z,89.31
2023-05-16T05:58:47.121Z,89.72
2023-05-16T06:03:49.203Z,90.10
2023-05-16T06:08:51.288Z,89.80
2023-05-16T06:13:53.554Z,89.25
2023-05-16T06:18:55.695Z,88.80
2023-05-16T06:23:58.033Z,88.97
2023-05-16T06:29:00.217Z,88.41
2023-05-16T06:34:02.304Z,88.50
2023-05-16T06:39:05.017Z,88.61
2023-05-16T06:44:07.126Z,89.24
2023-05-16T06:49:09.225Z,89.59
2023-05-16T06:54:11.442Z,89.18
2023-05-16T06:59:13.634Z,89.18
2023-05-16T07:04:16.286Z,88.99
2023-05-16T07:09:18.661Z,88.93
2023-05-16T07:14:20.812Z,89.09
2023-05-16T07:19:23.103Z,88.62
2023-05-16T07:24:25.168Z,88.72
2023-05-16T07:29:27.338Z,88.91
2023-05-16T07:34:29.471Z,89.13
2023-05-16T07:39:31.648Z,89.25
2023-05-16T07:44:34.326Z,89.90
2023-05-16T07:49:36.482Z,90.47
2023-05-16T07:54:39.170Z,90.79
2023-05-16T07:59:41.506Z,91.63
2023-05-16T08:04:43.662Z,92.11
2023-05-16T08:09:45.912Z,92.45
2023-05-16T08:14:48.046Z,93.08
2023-05-16T08:19:50.768Z,93.25
2023-05-16T08:24:53.046Z,93.52
2023-05-16T08:29:55.243Z,93.59
2023-05-16T08:34:57.428Z,93.64
2023-05-16T08:39:59.562Z,94.12
2023-05-16T08:45:01.726Z,94.46
2023-05-16T08:50:04.606Z,94.83
2023-05-16T08:55:11.606Z,95.34
2023-05-16T09:00:15.064Z,95.62
2023-05-16T09:05:18.105Z,95.66
2023-05-16T09:10:20.947Z,95.81
2023-05-16T09:15:23.089Z,95.82
2023-05-16T09:20:25.162Z,95.76
2023-05-16T09:25:31.412Z,95.74
2023-05-16T09:30:35.229Z,95.74
2023-05-16T09:40:43.033Z,95.12
2023-05-16T09:45:49.344Z,95.26
2023-05-16T09:50:54.440Z,95.41
2023-05-16T09:56:05.455Z,95.78
2023-05-16T10:01:08.698Z,95.80
2023-05-16T10:06:12.730Z,95.79
2023-05-16T10:11:16.766Z,95.82
2023-05-16T10:16:21.894Z,96.18
2023-05-16T10:21:28.343Z,96.42
2023-05-16T10:26:32.614Z,96.40
2023-05-16T10:31:36.149Z,96.76
2023-05-16T10:36:39.823Z,96.84
2023-05-16T10:41:42.750Z,96.71
2023-05-16T10:46:47.378Z,96.45
2023-05-16T10:52:10.335Z,96.51
2023-05-16T10:57:17.755Z,96.71
2023-05-16T11:02:26.051Z,96.84
2023-05-16T11:07:36.899Z,96.66
2023-05-16T11:12:52.541Z,96.78
2023-05-16T11:18:24.081Z,96.42
2023-05-16T11:23:26.997Z,96.35
2023-05-16T11:28:30.187Z,96.06
2023-05-16T11:33:35.629Z,95.36
2023-05-16T11:38:39.041Z,94.93
2023-05-16T11:43:43.324Z,94.89
2023-05-16T11:48:47.298Z,95.11
2023-05-16T11:53:53.078Z,95.31
2023-05-16T11:58:55.398Z,95.10
2023-05-16T12:03:58.260Z,95.06
2023-05-16T12:09:04.072Z,94.75
2023-05-16T12:14:12.121Z,94.19
2023-05-16T12:19:14.433Z,93.82
2023-05-16T12:24:17.702Z,94.15
2023-05-16T12:29:21.821Z,93.85
2023-05-16T12:34:24.361Z,94.01
2023-05-16T12:39:26.555Z,93.99
2023-05-16T12:44:30.368Z,93.98
2023-05-16T12:49:33.463Z,94.14
2023-05-16T12:54:35.657Z,94.16
2023-05-16T12:59:37.871Z,93.74
2023-05-16T13:04:40.012Z,94.05
2023-05-16T13:09:42.219Z,94.32
2023-05-16T13:14:45.240Z,94.27
2023-05-16T13:19:48.950Z,94.36
2023-05-16T13:24:53.681Z,94.63
2023-05-16T13:29:55.964Z,94.82
2023-05-16T13:34:58.110Z,94.88
2023-05-16T13:40:00.283Z,94.06
2023-05-16T13:45:02.713Z,93.22
2023-05-16T13:50:09.356Z,91.42
2023-05-16T13:55:11.570Z,90.19
2023-05-16T14:05:19.388Z,90.15
2023-05-16T14:10:21.660Z,90.17
2023-05-16T14:15:23.775Z,89.62
2023-05-16T14:20:25.859Z,88.69
2023-05-16T14:25:28.163Z,90.00
2023-05-16T14:30:31.621Z,89.90
2023-05-16T14:35:34.157Z,90.67
2023-05-16T14:40:36.296Z,90.72
2023-05-16T14:45:39.673Z,90.75
2023-05-16T14:50:41.846Z,91.08
2023-05-16T14:55:44.591Z,91.48
2023-05-16T15:00:47.121Z,91.17
2023-05-16T15:05:49.283Z,92.28
2023-05-16T15:10:51.606Z,92.89
2023-05-16T15:15:53.796Z,93.70
2023-05-16T15:20:56.006Z,93.66
2023-05-16T15:25:58.139Z,94.67
2023-05-16T15:31:00.482Z,95.74
2023-05-16T15:36:02.739Z,96.28
2023-05-16T15:41:18.696Z,96.46
2023-05-16T15:46:30.358Z,96.48
2023-05-16T15:51:32.664Z,96.32
2023-05-16T15:56:34.763Z,96.29
2023-05-16T16:01:36.970Z,96.59
2023-05-16T16:06:39.134Z,97.00
2023-05-16T16:11:41.299Z,97.29
2023-05-16T16:16:43.663Z,97.46
2023-05-16T16:21:46.434Z,97.60
2023-05-16T16:26:48.531Z,97.75
2023-05-16T16:31:50.884Z,97.74
2023-05-16T16:36:53.357Z,97.53
2023-05-16T16:41:56.829Z,97.55
2023-05-16T16:46:59.144Z,97.67
2023-05-16T16:52:01.450Z,97.90
2023-05-16T16:57:03.764Z,98.07
2023-05-16T17:02:06.401Z,98.26
2023-05-16T17:07:08.579Z,98.47
2023-05-16T17:12:18.856Z,98.62
2023-05-16T17:17:21.157Z,98.65
2023-05-16T17:22:23.359Z,98.97
2023-05-16T17:27:25.609Z,99.24
2023-05-16T17:32:28.294Z,99.23
2023-05-16T17:37:30.684Z,99.06
2023-05-16T17:42:32.910Z,99.24
2023-05-16T17:47:35.139Z,99.21
2023-05-16T17:52:39.511Z,99.15
2023-05-16T17:57:41.858Z,99.09
2023-05-16T18:02:44.727Z,99.02
2023-05-16T18:07:46.947Z,99.01
2023-05-16T18:12:49.395Z,99.11
2023-05-16T18:17:52.154Z,99.13
2023-05-16T18:22:54.634Z,99.17
2023-05-16T18:27:56.863Z,99.33
2023-05-16T18:32:59.947Z,99.50
2023-05-16T18:38:04.035Z,99.67
2023-05-16T18:43:06.655Z,99.68
2023-05-16T18:48:08.983Z,99.70
2023-05-16T18:53:12.750Z,99.73
2023-05-16T18:58:15.187Z,99.75
2023-05-16T19:03:17.651Z,99.90
2023-05-16T19:08:20.895Z,99.96
2023-05-16T19:13:23.167Z,99.91
2023-05-16T19:18:25.535Z,100.00
2023-05-16T19:23:27.911Z,100.00
2023-05-16T19:28:30.148Z,99.91
2023-05-16T19:33:32.340Z,99.88
2023-05-16T19:38:34.533Z,99.97
2023-05-16T19:43:36.760Z,99.91
2023-05-16T19:48:39.204Z,99.94
2023-05-16T19:53:42.782Z,99.91
2023-05-16T19:58:44.944Z,99.93
2023-05-16T20:03:47.117Z,100.00
2023-05-16T20:08:49.471Z,100.00
2023-05-16T20:13:51.609Z,100.00
2023-05-16T20:18:53.981Z,100.00
2023-05-16T20:23:56.266Z,100.00
2023-05-16T20:28:58.482Z,100.00
2023-05-16T20:34:00.739Z,100.00
2023-05-16T20:39:03.886Z,100.00
2023-05-16T20:44:06.826Z,100.00
2023-05-16T20:49:10.222Z,100.00
2023-05-16T20:54:13.347Z,100.00
2023-05-16T20:59:15.491Z,100.00
2023-05-16T21:04:18.332Z,100.00
2023-05-16T21:09:20.505Z,100.00
2023-05-16T21:14:22.638Z,100.00
2023-05-16T21:19:24.929Z,100.00
2023-05-16T21:24:27.151Z,100.00
2023-05-16T21:29:29.370Z,100.00
2023-05-16T21:34:31.535Z,99.88
2023-05-16T21:39:33.723Z,99.91
2023-05-16T21:44:35.834Z,99.82
2023-05-16T21:49:37.962Z,99.84
2023-05-16T21:54:40.121Z,99.95
2023-05-16T21:59:42.212Z,100.00
2023-05-16T22:04:44.376Z,100.00
2023-05-16T22:09:50.803Z,100.00
2023-05-16T22:14:53.194Z,100.00
2023-05-16T22:19:55.767Z,100.00
2023-05-16T22:24:57.868Z,100.00
2023-05-16T22:29:59.983Z,100.00
2023-05-16T22:35:02.085Z,100.00
2023-05-16T22:40:04.616Z,100.00
2023-05-16T22:45:07.460Z,100.00
2023-05-16T22:50:09.915Z,100.00
2023-05-16T22:55:12.113Z,100.00
2023-05-16T23:00:14.574Z,100.00
2023-05-16T23:05:16.921Z,100.00
2023-05-16T23:10:19.302Z,100.00
2023-05-16T23:15:21.743Z,100.00
2023-05-16T23:20:24.486Z,100.00
2023-05-16T23:25:26.798Z,100.00
2023-05-16T23:30:29.071Z,100.00
2023-05-16T23:35:31.204Z,100.00
2023-05-16T23:40:33.387Z,100.00
2023-05-16T23:45:35.557Z,100.00
2023-05-16T23:50:37.689Z,100.00
2023-05-16T23:55:39.796Z,100.00
